Logo AVAMET
Benvolgut visitant, si us plau, ingressa Recuperar contrasenya
AVAMET paisatges
Union Alcoyana

Mutxamel Río Park

Dades diàries. Acumulats / Últims 30 dies disponibles

Data Temperatura (°C) Humitat rel. (%) Pressió rel. (hPa) Vent (km/h) Precipitació
Mínima Mitjana Màxima Amplitud
tèrmica
Mínima Mitjana Màxima Mínima Mitjana Màxima Predom. Mitjana Ràfega
màxima
Total
(mm)
Índex-n
Mínima Mitjana Màxima Mínima Mitjana Màxima n
0 a 1
P0 max
mm 5'
Dades mensuals acumulades fins l'últim dia disponible
11/2021 7,6 11,5 20,4 15,8 12,2 20,0 27,9 20,3 19 60 95 1.001 1.014 1.027   39,0 18,2
Dades anuals acumulades fins l'últim dia disponible
2021 2,7 15,1 27,4 20,0 9,0 24,9 42,3 39,6 13 63 98 1.000 1.015 1.034   67,0 244,0
Últims 30 dies disponibles
27-11-2021 7,6     12,6     17,5 9,9 33 47 60 1.001 1.004 1.007 35,0 0,0
26-11-2021 9,3     13,2     17,2 7,9 37 52 66 1.004 1.006 1.008 20,0 0,0
25-11-2021 8,9     13,1     17,3 8,4 42 55 67 1.004 1.006 1.008 39,0 0,0
24-11-2021 8,3     11,3     14,3 6,0 43 61 78 1.008 1.010 1.011 26,0 1,3
23-11-2021 8,6     13,6     18,5 9,9 27 61 95 1.007 1.009 1.010 23,0 5,9
22-11-2021 12,2     15,9     19,7 7,5 52 70 88 1.007 1.009 1.010 9,0 0,0
21-11-2021 12,3     16,4     20,5 8,2 54 73 92 1.010 1.013 1.016 8,0 0,7
20-11-2021 14,9     16,9     18,8 3,9 68 77 86 1.016 1.020 1.024 15,0 0,3
19-11-2021 9,9     14,4     18,9 9,0 56 70 83 1.024 1.026 1.027 22,0 0,0
18-11-2021 10,2     12,6     14,9 4,7 74 84 94 1.021 1.024 1.026 9,0 5,4
17-11-2021 10,4     15,2     19,9 9,5 47 64 81 1.016 1.019 1.021 8,0 0,0
16-11-2021 9,6     14,5     19,4 9,8 40 57 74 1.015 1.016 1.017 9,0 0,0
15-11-2021 10,6     15,8     21,0 10,4 29 47 65 1.012 1.014 1.016 13,0 0,0
14-11-2021 11,6     17,7     23,8 12,2 36 61 86 1.011 1.014 1.017 16,0 0,0
13-11-2021 12,8     18,0     23,2 10,4 41 61 81 1.015 1.016 1.017 15,0 0,0
12-11-2021 15,8     19,0     22,2 6,4 45 59 72 1.013 1.015 1.016 20,0 0,0
11-11-2021 10,4     16,7     23,0 12,6 34 55 75 1.014 1.015 1.016 11,0 0,0
10-11-2021 12,9     16,1     19,3 6,4 50 64 77 1.013 1.015 1.016 19,0 1,0
09-11-2021 10,6     15,8     20,9 10,3 48 61 74 1.014 1.015 1.016 11,0 0,0
08-11-2021 10,1     15,7     21,3 11,2 31 47 62 1.013 1.015 1.016 11,0 0,0
07-11-2021 10,5     17,4     24,2 13,7 19 43 66 1.016 1.018 1.020 12,0 0,0
06-11-2021 12,2     12,2     12,2 66 66 66 1.018 1.019 1.020 0,0 0,0
05-11-2021 10,1     14,8     19,5 9,4 34 55 75 1.014 1.017 1.020 11,0 0,0
04-11-2021 10,3     16,0     21,7 11,4 27 58 88 1.009 1.012 1.014 20,0 2,3
03-11-2021 13,2     16,5     19,8 6,6 34 56 78 1.003 1.007 1.010 38,0 1,3
02-11-2021 17,6     20,8     23,9 6,3 40 56 72 1.006 1.009 1.012 21,0 0,0
01-11-2021 20,4     24,1     27,9 7,5 39 56 72 1.008 1.010 1.011 37,0 0,0
31-10-2021 18,6     24,4     30,1 11,5 40 66 92 1.009 1.011 1.012 36,0 0,0
30-10-2021 15,5     18,5     21,5 6,0 71 83 94 1.008 1.010 1.012 10,0 4,4
29-10-2021 14,1     18,8     23,5 9,4 56 73 89 1.011 1.013 1.015 12,0 0,0
Últims 13 mesos disponibles
10/2021 13,1 16,0 19,9 20,9 21,0 25,7 30,3 17,2 49 67 83 1.010 1.018 1.025 36,0 17,4
09/2021 17,3 20,9 24,1 25,9 27,9 30,9 34,4 17,1 51 62 73 1.012 1.016 1.022 44,0 10,7
08/2021 19,3 22,8 27,4 27,9 29,1 33,0 42,3 23,0 44 62 74 1.006 1.013 1.018 43,0 0,0
07/2021 18,8 21,2 25,3 26,6 28,6 32,1 37,8 19,0 47 61 74 1.008 1.013 1.019 33,0 17,9
06/2021 16,3 19,2 22,6 24,2 24,6 29,2 35,9 19,6 43 63 84 1.009 1.015 1.020 32,0 12,0
05/2021 12,7 15,3 18,4 20,2 18,9 25,0 29,6 16,9 38 62 83 1.007 1.015 1.022 49,0 43,4
04/2021 7,3 11,9 15,2 16,5 14,8 21,0 28,9 21,6 51 70 86 1.004 1.014 1.022 37,0 45,8
03/2021 5,1 9,5 13,6 14,6 12,3 19,6 26,4 21,3 46 65 89 1.012 1.020 1.026 44,0 40,9
02/2021 5,7 9,8 16,3 14,7 13,7 19,6 25,3 19,6 42 64 87 1.002 1.017 1.033 63,0 14,2
01/2021 2,7 7,7 17,6 12,7 9,0 17,8 30,1 27,4 36 57 87 1.003 1.015 1.026 67,0 23,5
12/2020 2,1 8,9 17,3 13,6 10,4 18,4 24,6 22,5 32 55 83 999 1.014 1.027 61,0 1,3
11/2020 8,1 12,4 18,1 17,5 17,7 22,6 29,4 21,3 54 68 80 1.005 1.020 1.028 58,0 21,8
10/2020 12,3 15,4 20,6 20,6 21,3 25,9 33,3 21,0 40 56 76 1.002 1.016 1.024 50,0 3,6
Tots els anys disponibles
2020 2,1 14,8 25,5 19,9 10,4 25,0 36,7 34,6 32 61 90 999 1.017 1.032 0 69,0 229,0
2019 0,0 14,5 26,5 19,5 5,9 24,5 38,0 38,0 30 60 90 503 1.014 1.031 78,0 262,8
2018 2,7 14,6 27,1 19,6 9,6 24,7 37,3 34,6 31 61 85 992 1.014 1.032 67,0 241,4
Temperatura (°C)
Humitat relativa (%)
Velocitat del vent i ràfega màxima (km/h)
Direcció del vent (°)
Pressió (hPa)
Precipitació (mm)
Nota sobre les dades: s'avisa a l'usuari de la provisionalitat i no oficialitat d'aquestes dades
Logo AVAMET blanc
Web allotjada a Sollutia
Llicència de Creative CommonsLa web d'AVAMET i els seus continguts estan subjectes a una llicència de
Reconeixement - No Comercial - Compartir igual
Avís legal - Política de privacitat - Política de cookies
NOVES ESTACIONS: Castelló de la Plana - IES Francesc Ribalta (Soci) / Castelló de la Plana - Camí de la Plana (Soci) /  Aspe - Calle San Juan (Soci) / El Ràfol d'Almúnia (Ajuntament Soci) / Nules (Platja) - l'Estany (Soci) / Soneja (Ajuntament Soci) / Castalla - CEIP Rico Sapena (Soci) / Ontinyent - Col·legi La Milagrosa (Soci) / l'Alcúdia de Veo - Veo (Soci) / Cullera - Far (Soci) / Loriguilla - Pozalet (Soci) / Polop (Ajuntament Soci) / Viver - Cooperativa (Soci) - - -